Time;durP1;ratioP1;P1;durP2;ratioP2;P2;SDS_P1;SDS_P2;PMS_P1;PMS_P2;Temp;Humidity;BMP_temperature;BMP_pressure;BME280_temperature;BME280_humidity;BME280_pressure;Samples;Min_cycle;Max_cycle;Signal;HPM_P1;HPM_P2
2021/10/03 00:02:42;;;;;;;5.88;2.58;;;;;;;15.38;72.23;100004.75;10167612;28;20096;-69
2021/10/03 00:12:45;;;;;;;6.03;2.75;;;;;;;15.42;72.77;99982.78;10815533;23;20120;-72
2021/10/03 00:17:42;;;;;;;7.05;2.80;;;;;;;15.43;73.28;99945.81;10188846;28;20975;-72
2021/10/03 00:22:40;;;;;;;7.68;3.05;;;;;;;15.45;73.51;99937.97;10152882;28;20050;-72
2021/10/03 00:27:36;;;;;;;7.57;3.10;;;;;;;15.48;73.32;99942.72;10137832;28;20082;-72
2021/10/03 00:32:32;;;;;;;6.68;2.90;;;;;;;15.51;73.43;99936.50;10146861;28;20046;-73
2021/10/03 00:37:29;;;;;;;5.78;3.42;;;;;;;15.53;73.71;99939.69;10132431;28;20097;-70
2021/10/03 00:42:26;;;;;;;7.32;3.72;;;;;;;15.57;73.51;99941.31;10141433;28;20081;-71
2021/10/03 00:47:23;;;;;;;5.55;3.65;;;;;;;15.65;73.65;99941.44;10153699;28;20042;-73
2021/10/03 00:52:20;;;;;;;8.07;4.05;;;;;;;15.72;73.64;99928.56;10146107;28;20580;-73
2021/10/03 00:57:16;;;;;;;7.43;3.95;;;;;;;15.82;73.43;99918.06;10139267;28;20082;-73
2021/10/03 01:02:13;;;;;;;7.82;3.67;;;;;;;15.89;73.54;99893.34;10141203;28;20059;-73
2021/10/03 01:07:10;;;;;;;7.50;3.97;;;;;;;15.97;73.33;99898.59;10144063;28;20102;-73
2021/10/03 01:12:06;;;;;;;6.85;3.70;;;;;;;16.09;73.21;99894.81;10141656;28;20393;-73
2021/10/03 01:17:03;;;;;;;6.28;3.30;;;;;;;16.18;72.92;99892.56;10152373;28;20046;-72
2021/10/03 01:22:00;;;;;;;6.55;3.28;;;;;;;16.33;71.70;99881.69;10130661;28;20049;-72
2021/10/03 01:26:56;;;;;;;6.45;3.47;;;;;;;16.50;71.51;99875.56;10148103;28;20050;-73
2021/10/03 01:31:53;;;;;;;7.03;3.83;;;;;;;16.61;71.24;99859.09;10147861;28;20101;-72
2021/10/03 01:36:51;;;;;;;7.63;3.13;;;;;;;16.76;70.50;99871.09;10145090;28;20070;-72
2021/10/03 01:41:48;;;;;;;5.72;3.35;;;;;;;16.79;70.63;99856.53;10120935;28;20109;-71
2021/10/03 01:46:56;;;;;;;8.10;3.47;;;;;;;16.81;70.44;99846.72;10154892;28;20096;-69
2021/10/03 01:51:59;;;;;;;6.38;3.47;;;;;;;16.84;70.36;99845.16;10122204;28;20113;-73
2021/10/03 01:57:13;;;;;;;5.97;3.10;;;;;;;16.90;70.07;99849.16;10137297;28;20550;-71
2021/10/03 02:02:09;;;;;;;8.07;3.78;;;;;;;16.90;70.08;99849.16;10130018;28;20511;-71
2021/10/03 02:07:10;;;;;;;8.90;4.45;;;;;;;16.95;70.16;99850.78;10146427;28;20507;-71
2021/10/03 02:12:07;;;;;;;5.93;3.70;;;;;;;16.99;69.85;99846.88;10143611;28;20046;-71
2021/10/03 02:17:06;;;;;;;9.50;3.97;;;;;;;17.05;69.85;99839.00;10114717;28;20504;-70
2021/10/03 02:22:07;;;;;;;6.03;3.45;;;;;;;17.14;69.94;99830.41;10148097;28;20073;-70
2021/10/03 02:27:14;;;;;;;6.47;3.20;;;;;;;17.11;70.51;99815.38;10139874;28;20140;-72
2021/10/03 02:32:12;;;;;;;6.35;3.50;;;;;;;17.12;70.54;99814.19;10150516;28;20101;-73
2021/10/03 02:37:09;;;;;;;5.93;3.42;;;;;;;17.12;70.51;99810.66;10139007;28;20053;-72
2021/10/03 02:42:05;;;;;;;6.32;3.17;;;;;;;17.17;70.33;99802.00;10148931;28;20056;-72
2021/10/03 02:47:04;;;;;;;5.53;3.20;;;;;;;17.16;70.18;99806.75;10149559;28;20097;-74
2021/10/03 02:52:04;;;;;;;5.55;3.72;;;;;;;17.19;69.84;99810.69;10154007;28;20048;-72
2021/10/03 02:57:04;;;;;;;6.85;3.33;;;;;;;17.23;69.71;99811.53;10119079;28;20066;-72
2021/10/03 03:02:04;;;;;;;5.68;3.47;;;;;;;17.30;69.42;99814.31;10145081;28;20076;-71
2021/10/03 03:07:01;;;;;;;6.75;3.33;;;;;;;17.31;69.58;99821.41;10140504;28;20051;-71
2021/10/03 03:12:07;;;;;;;5.07;3.17;;;;;;;17.28;70.24;99824.97;10149093;28;20427;-71
2021/10/03 03:17:19;;;;;;;9.52;3.80;;;;;;;17.29;70.48;99815.50;10146446;28;20157;-71
2021/10/03 03:22:16;;;;;;;6.13;3.53;;;;;;;17.32;70.58;99814.72;10146910;28;20077;-71
2021/10/03 03:27:13;;;;;;;8.77;3.17;;;;;;;17.36;70.64;99815.56;10149884;28;20146;-71
2021/10/03 03:32:10;;;;;;;6.57;3.00;;;;;;;17.35;70.99;99825.00;10142612;28;20042;-71
2021/10/03 03:37:07;;;;;;;5.93;3.50;;;;;;;17.36;71.56;99823.84;10136117;28;20137;-71
2021/10/03 03:42:04;;;;;;;6.70;3.67;;;;;;;17.32;72.18;99820.25;10145030;28;20055;-70
2021/10/03 03:47:01;;;;;;;5.13;3.28;;;;;;;17.26;72.92;99816.25;10146989;28;20122;-72
2021/10/03 03:51:57;;;;;;;6.57;3.13;;;;;;;17.17;73.86;99821.34;10140293;28;20411;-71
2021/10/03 03:56:54;;;;;;;4.72;2.92;;;;;;;17.12;74.34;99818.94;10149171;28;20334;-71
2021/10/03 04:01:52;;;;;;;7.82;3.90;;;;;;;17.08;74.64;99812.59;10144708;28;20468;-71
2021/10/03 04:06:48;;;;;;;5.53;3.17;;;;;;;17.08;75.01;99826.41;10134354;28;20559;-71
2021/10/03 04:11:45;;;;;;;8.40;3.72;;;;;;;17.07;74.57;99808.25;10141967;28;20361;-70
2021/10/03 04:16:41;;;;;;;6.82;3.85;;;;;;;17.09;74.15;99811.44;10148885;28;20101;-71
2021/10/03 04:21:38;;;;;;;5.93;3.55;;;;;;;17.08;73.90;99809.81;10149831;28;20097;-71
2021/10/03 04:26:34;;;;;;;5.60;3.35;;;;;;;17.12;72.56;99827.22;10132803;28;20081;-71
2021/10/03 04:31:31;;;;;;;6.22;4.20;;;;;;;17.14;72.32;99830.41;10147894;28;20113;-71
2021/10/03 04:36:27;;;;;;;6.72;3.42;;;;;;;17.15;72.50;99826.44;10148854;28;20175;-72
2021/10/03 04:41:24;;;;;;;5.47;3.10;;;;;;;17.15;72.13;99831.97;10141659;28;20054;-72
2021/10/03 04:46:20;;;;;;;5.68;3.55;;;;;;;17.17;71.82;99829.63;10143722;28;20659;-72
2021/10/03 04:51:17;;;;;;;8.40;3.28;;;;;;;17.17;71.94;99824.09;10150061;28;20502;-71
2021/10/03 04:56:14;;;;;;;9.00;3.78;;;;;;;17.21;71.25;99822.16;10148306;28;20043;-73
2021/10/03 05:01:11;;;;;;;8.70;4.00;;;;;;;17.27;70.65;99828.91;10140128;28;20063;-72
2021/10/03 05:06:09;;;;;;;5.63;3.40;;;;;;;17.24;70.78;99821.38;10147958;28;20044;-72
2021/10/03 05:11:06;;;;;;;5.68;3.78;;;;;;;17.28;70.49;99824.97;10143129;28;20109;-72
2021/10/03 05:16:03;;;;;;;7.57;3.25;;;;;;;17.31;70.08;99824.19;10147793;28;20771;-72
2021/10/03 05:20:59;;;;;;;5.43;3.00;;;;;;;17.30;70.15;99822.59;10146829;28;20042;-72
2021/10/03 05:25:55;;;;;;;6.15;3.33;;;;;;;17.33;70.22;99832.09;10151515;28;20116;-72
2021/10/03 05:30:52;;;;;;;7.03;3.33;;;;;;;17.34;70.35;99815.16;10148616;28;20046;-73
2021/10/03 05:35:49;;;;;;;7.20;3.17;;;;;;;17.35;70.29;99825.00;10149685;28;20412;-73
2021/10/03 05:40:46;;;;;;;5.53;3.55;;;;;;;17.36;70.40;99825.78;10123512;28;20332;-73
2021/10/03 05:45:46;;;;;;;5.07;3.10;;;;;;;17.37;70.01;99822.66;10146994;28;20476;-73
2021/10/03 05:50:42;;;;;;;6.43;3.58;;;;;;;17.38;70.01;99818.72;10141708;28;20116;-73
2021/10/03 05:55:39;;;;;;;6.85;3.47;;;;;;;17.42;69.76;99814.00;10143853;28;20042;-73
2021/10/03 06:00:35;;;;;;;5.15;3.42;;;;;;;17.43;69.81;99812.03;10151622;28;20524;-73
2021/10/03 06:05:32;;;;;;;6.60;3.78;;;;;;;17.42;69.95;99808.47;10152540;28;20066;-73
2021/10/03 06:10:29;;;;;;;5.75;3.00;;;;;;;17.43;69.72;99810.06;10144578;28;20054;-72
2021/10/03 06:15:25;;;;;;;5.35;3.38;;;;;;;17.44;70.01;99819.94;10140446;28;20070;-72
2021/10/03 06:20:22;;;;;;;5.18;2.95;;;;;;;17.47;69.99;99815.59;10145212;28;20085;-73
2021/10/03 06:25:19;;;;;;;6.47;3.28;;;;;;;17.49;70.11;99823.50;10140371;28;20050;-73
2021/10/03 06:30:16;;;;;;;5.97;3.53;;;;;;;17.50;70.06;99827.84;10150097;28;20056;-72
2021/10/03 06:35:12;;;;;;;9.55;3.47;;;;;;;17.51;69.85;99824.72;10148971;28;20094;-72
2021/10/03 06:40:09;;;;;;;6.13;3.45;;;;;;;17.54;70.05;99823.13;10132237;28;20051;-71
2021/10/03 06:45:06;;;;;;;6.88;3.45;;;;;;;17.56;70.06;99832.63;10155663;28;20101;-71
2021/10/03 06:50:04;;;;;;;5.90;3.65;;;;;;;17.62;70.15;99839.38;10144814;28;20054;-72
2021/10/03 06:55:00;;;;;;;5.97;3.60;;;;;;;17.66;70.11;99850.44;10152067;28;20142;-72
2021/10/03 06:59:57;;;;;;;10.13;3.50;;;;;;;17.70;69.78;99851.25;10140896;28;20562;-72
2021/10/03 07:04:53;;;;;;;6.40;3.00;;;;;;;17.74;69.92;99843.78;10148153;28;20038;-72
2021/10/03 07:09:51;;;;;;;4.65;2.92;;;;;;;17.79;69.73;99848.16;10144532;28;20046;-72
2021/10/03 07:14:48;;;;;;;5.13;3.53;;;;;;;17.85;69.81;99849.41;10145101;28;20046;-72
2021/10/03 07:19:44;;;;;;;5.63;3.13;;;;;;;17.91;69.38;99849.81;10128566;28;20050;-72
2021/10/03 07:24:42;;;;;;;6.97;3.60;;;;;;;17.95;69.55;99856.16;10149561;28;20474;-72
2021/10/03 07:29:38;;;;;;;8.90;3.17;;;;;;;18.00;69.57;99855.78;10138053;28;20708;-73
2021/10/03 07:34:36;;;;;;;5.25;3.10;;;;;;;18.03;69.21;99863.28;10127235;28;20050;-72
2021/10/03 07:39:34;;;;;;;6.18;3.13;;;;;;;18.06;68.89;99868.06;10128874;28;20420;-71
2021/10/03 07:44:31;;;;;;;6.22;3.22;;;;;;;18.13;68.64;99879.16;10141520;28;20418;-71
2021/10/03 07:49:30;;;;;;;5.85;3.60;;;;;;;18.14;68.51;99879.94;10136498;28;20054;-74
2021/10/03 07:54:27;;;;;;;9.18;3.35;;;;;;;18.16;68.13;99881.13;10151744;28;20133;-71
2021/10/03 07:59:23;;;;;;;5.60;3.03;;;;;;;18.19;68.17;99887.84;10128661;28;20108;-73
2021/10/03 08:04:20;;;;;;;6.40;3.20;;;;;;;18.25;67.83;99892.63;10142840;28;20438;-72
2021/10/03 08:09:16;;;;;;;9.75;3.80;;;;;;;18.25;67.66;99895.38;10142607;28;20043;-71
2021/10/03 08:14:13;;;;;;;6.88;3.38;;;;;;;18.24;67.61;99893.81;10130939;28;20046;-72
2021/10/03 08:19:09;;;;;;;6.68;3.42;;;;;;;18.24;67.08;99884.69;10139528;28;20093;-71
2021/10/03 08:24:06;;;;;;;5.38;3.15;;;;;;;18.25;66.82;99898.16;10150349;28;20072;-71
2021/10/03 08:29:03;;;;;;;6.60;3.60;;;;;;;18.25;67.13;99878.78;10142443;28;20077;-73
2021/10/03 08:33:59;;;;;;;8.25;3.85;;;;;;;18.28;67.16;99880.75;10149492;28;20155;-72
2021/10/03 08:38:56;;;;;;;8.30;3.40;;;;;;;18.30;67.79;99885.91;10141168;28;20050;-72
2021/10/03 08:43:52;;;;;;;7.47;3.33;;;;;;;18.28;67.49;99880.75;10141744;28;20468;-71
2021/10/03 08:48:49;;;;;;;5.50;3.22;;;;;;;18.24;68.03;99879.16;10134768;28;20053;-72
2021/10/03 08:53:46;;;;;;;5.20;3.17;;;;;;;18.16;67.97;99867.28;10150243;28;20129;-72
2021/10/03 08:58:43;;;;;;;7.57;3.08;;;;;;;18.12;67.95;99882.28;10144917;28;20058;-73
2021/10/03 09:03:41;;;;;;;6.80;3.60;;;;;;;18.09;68.00;99886.63;10141143;28;20510;-72
2021/10/03 09:08:42;;;;;;;6.00;3.30;;;;;;;18.09;68.56;99892.16;10143705;28;20079;-72
2021/10/03 09:13:46;;;;;;;6.50;3.22;;;;;;;18.09;68.88;99900.47;10137747;28;20765;-72
2021/10/03 09:18:52;;;;;;;5.82;3.33;;;;;;;18.12;68.73;99894.13;10139142;28;20042;-72
2021/10/03 09:23:56;;;;;;;6.70;3.40;;;;;;;18.14;68.71;99908.38;10150061;28;20057;-71
2021/10/03 09:28:53;;;;;;;7.32;3.45;;;;;;;18.14;69.22;99902.06;10138270;28;20078;-73
2021/10/03 09:33:53;;;;;;;7.07;3.47;;;;;;;18.15;68.76;99909.97;10150899;28;20050;-71
2021/10/03 09:38:54;;;;;;;5.35;3.17;;;;;;;18.18;68.27;99897.34;10156849;28;20042;-71
2021/10/03 09:43:59;;;;;;;6.88;3.38;;;;;;;18.23;68.85;99911.56;10147787;28;20046;-71
2021/10/03 09:48:56;;;;;;;5.85;3.70;;;;;;;18.25;69.54;99909.22;10149075;28;20052;-71
2021/10/03 09:53:52;;;;;;;5.47;3.38;;;;;;;18.24;69.01;99934.50;10150389;28;20076;-71
2021/10/03 09:58:50;;;;;;;6.32;3.20;;;;;;;18.22;68.68;99915.53;10154280;28;20133;-71
2021/10/03 10:03:47;;;;;;;5.45;3.20;;;;;;;18.21;68.97;99913.94;10151113;28;20080;-71
2021/10/03 10:08:46;;;;;;;5.57;3.40;;;;;;;18.26;67.61;99932.97;10144236;28;20129;-74
2021/10/03 10:13:52;;;;;;;4.80;3.13;;;;;;;18.32;67.98;99946.41;10146011;28;20046;-72
2021/10/03 10:18:51;;;;;;;6.95;3.17;;;;;;;18.32;67.74;99935.34;10146214;28;20463;-71
2021/10/03 10:23:48;;;;;;;5.47;2.88;;;;;;;18.35;68.85;99931.78;10155071;28;20038;-71
2021/10/03 10:28:44;;;;;;;8.48;3.65;;;;;;;18.43;67.69;99930.66;10145778;28;20046;-71
2021/10/03 10:33:49;;;;;;;7.70;2.78;;;;;;;18.46;66.15;99929.84;10147023;28;20047;-71
2021/10/03 10:39:07;;;;;;;4.97;2.83;;;;;;;18.52;66.12;99928.31;10148360;28;20559;-71
2021/10/03 10:44:49;;;;;;;6.88;3.10;;;;;;;18.60;65.54;99935.44;10137674;28;20138;-70
2021/10/03 10:49:51;;;;;;;5.47;2.93;;;;;;;18.64;65.91;99929.91;10140251;28;20058;-70
2021/10/03 10:55:06;;;;;;;5.55;2.70;;;;;;;18.75;66.91;99927.16;10149978;28;20081;-71
2021/10/03 11:00:24;;;;;;;7.60;2.90;;;;;;;18.83;65.45;99931.56;10135297;28;20061;-70
2021/10/03 11:05:37;;;;;;;4.68;2.65;;;;;;;18.90;66.61;99931.56;10147042;28;21546;-70
2021/10/03 11:10:56;;;;;;;6.88;2.90;;;;;;;18.95;65.88;99931.16;10145518;28;20058;-70
2021/10/03 11:16:21;;;;;;;4.88;3.05;;;;;;;18.98;64.56;99927.59;10148325;28;20069;-70
2021/10/03 11:21:33;;;;;;;4.90;2.80;;;;;;;19.04;64.09;99920.50;10144906;28;20164;-70
2021/10/03 11:26:57;;;;;;;5.80;2.78;;;;;;;19.07;62.83;99927.22;10151671;28;20050;-70
2021/10/03 11:32:08;;;;;;;5.82;2.78;;;;;;;19.07;61.77;99925.25;10154371;28;20046;-70
2021/10/03 11:37:13;;;;;;;5.82;2.65;;;;;;;19.07;61.67;99928.00;10149607;28;20101;-70
2021/10/03 11:42:18;;;;;;;5.60;2.92;;;;;;;19.08;61.89;99915.75;10145495;28;20101;-70
2021/10/03 11:47:16;;;;;;;5.75;3.17;;;;;;;19.12;61.51;99918.50;10153331;28;20046;-70
2021/10/03 11:52:27;;;;;;;6.90;2.78;;;;;;;19.10;61.09;99913.38;10145495;28;20117;-70
2021/10/03 11:57:28;;;;;;;5.90;2.80;;;;;;;19.12;61.03;99905.47;10151002;28;20042;-71
2021/10/03 12:02:24;;;;;;;6.15;2.35;;;;;;;19.13;61.47;99904.28;10140858;28;20436;-70
2021/10/03 12:07:21;;;;;;;4.97;2.35;;;;;;;19.22;61.71;99908.66;10146138;28;20500;-70
2021/10/03 12:12:18;;;;;;;5.47;2.63;;;;;;;19.24;61.65;99906.25;10148454;28;20101;-71
2021/10/03 12:17:14;;;;;;;5.38;2.67;;;;;;;19.26;62.85;99917.72;10145864;28;20077;-71
2021/10/03 12:22:11;;;;;;;6.22;2.42;;;;;;;19.25;63.31;99913.38;10149921;28;20042;-71
2021/10/03 12:27:07;;;;;;;5.20;2.55;;;;;;;19.22;63.42;99914.19;10152019;28;20060;-72
2021/10/03 12:32:11;;;;;;;6.32;2.65;;;;;;;19.23;63.50;99921.31;10147680;28;20063;-71
2021/10/03 12:37:17;;;;;;;4.30;2.58;;;;;;;19.28;62.92;99912.59;10137907;28;20042;-71
2021/10/03 12:42:17;;;;;;;5.30;2.70;;;;;;;19.28;62.26;99918.13;10145631;28;20442;-69
2021/10/03 12:47:15;;;;;;;4.07;2.33;;;;;;;19.30;62.52;99904.66;10146059;28;20051;-68
2021/10/03 12:52:13;;;;;;;7.78;2.70;;;;;;;19.31;62.47;99897.94;10132957;28;20494;-69
2021/10/03 12:57:11;;;;;;;6.65;2.97;;;;;;;19.33;61.89;99892.78;10143527;28;20061;-69
2021/10/03 13:02:08;;;;;;;5.03;2.50;;;;;;;19.33;60.83;99888.03;10144310;28;20046;-68
2021/10/03 13:07:07;;;;;;;5.53;2.45;;;;;;;19.37;60.37;99885.25;10148042;28;20042;-69
2021/10/03 13:12:04;;;;;;;4.97;2.22;;;;;;;19.37;60.55;99885.25;10144490;28;20056;-69
2021/10/03 13:17:00;;;;;;;6.10;2.88;;;;;;;19.39;60.61;99877.34;10144355;28;20038;-69
2021/10/03 13:21:57;;;;;;;5.72;2.70;;;;;;;19.39;60.08;99880.09;10142036;28;20046;-69
2021/10/03 13:26:53;;;;;;;6.20;2.50;;;;;;;19.39;60.36;99885.66;10138530;28;20042;-69
2021/10/03 13:31:50;;;;;;;6.40;2.47;;;;;;;19.41;59.93;99882.50;10140717;28;20046;-69
2021/10/03 13:36:46;;;;;;;4.85;2.53;;;;;;;19.44;59.30;99884.47;10143401;28;20081;-69
2021/10/03 13:41:43;;;;;;;6.68;3.13;;;;;;;19.44;59.29;99888.00;10143369;28;20393;-69
2021/10/03 13:46:40;;;;;;;4.57;2.40;;;;;;;19.45;59.23;99900.69;10144281;28;20500;-69
2021/10/03 13:51:36;;;;;;;5.07;2.60;;;;;;;19.44;60.13;99893.56;10146292;28;20042;-69
2021/10/03 13:56:33;;;;;;;6.13;2.55;;;;;;;19.40;60.72;99903.88;10143298;28;20128;-68
2021/10/03 14:01:30;;;;;;;4.90;2.50;;;;;;;19.37;61.32;99892.78;10139089;28;20456;-69
2021/10/03 14:06:26;;;;;;;10.00;2.97;;;;;;;19.36;60.49;99902.31;10139019;28;20651;-69
2021/10/03 14:11:23;;;;;;;7.85;3.05;;;;;;;19.41;60.58;99888.03;10142654;28;20066;-70
2021/10/03 14:16:19;;;;;;;4.43;2.15;;;;;;;19.47;59.58;99914.97;10141939;28;20047;-69
2021/10/03 14:21:16;;;;;;;4.35;2.45;;;;;;;19.50;60.42;99897.53;10150797;28;20711;-69
2021/10/03 14:26:12;;;;;;;4.30;2.25;;;;;;;19.57;59.94;99907.03;10150370;28;20126;-70
2021/10/03 14:31:08;;;;;;;6.03;2.47;;;;;;;19.71;59.62;99907.03;10146782;28;20239;-69
2021/10/03 14:36:06;;;;;;;4.75;2.20;;;;;;;19.76;58.76;99912.94;10142600;28;20115;-70
2021/10/03 14:41:02;;;;;;;5.53;2.65;;;;;;;19.75;59.17;99922.47;10146359;28;20054;-69
2021/10/03 14:45:59;;;;;;;5.53;2.67;;;;;;;19.74;59.27;99922.84;10149901;28;20050;-69
2021/10/03 14:50:57;;;;;;;5.60;2.30;;;;;;;19.73;59.01;99921.28;10146153;28;20042;-69
2021/10/03 14:55:54;;;;;;;6.45;2.22;;;;;;;19.71;58.83;99935.53;10147675;28;20065;-70
2021/10/03 15:00:50;;;;;;;4.75;2.28;;;;;;;19.70;58.56;99935.94;10152576;28;20538;-69
2021/10/03 15:05:47;;;;;;;7.82;2.38;;;;;;;19.67;59.03;99928.38;10150937;28;20050;-69
2021/10/03 15:10:44;;;;;;;4.32;2.22;;;;;;;19.64;59.22;99940.28;10152120;28;20042;-70
2021/10/03 15:15:40;;;;;;;4.57;2.15;;;;;;;19.62;59.36;99948.22;10148270;28;20132;-70
2021/10/03 15:20:37;;;;;;;4.97;2.90;;;;;;;19.60;59.77;99942.25;10152364;28;20073;-69
2021/10/03 15:25:34;;;;;;;6.40;2.53;;;;;;;19.57;59.58;99946.63;10150621;28;20081;-69
2021/10/03 15:30:31;;;;;;;5.25;2.75;;;;;;;19.57;60.08;99951.38;10144717;28;20133;-70
2021/10/03 15:35:27;;;;;;;6.80;2.78;;;;;;;19.52;60.24;99956.13;10148648;28;20716;-69
2021/10/03 15:40:27;;;;;;;6.05;3.00;;;;;;;19.47;61.17;99967.63;10148653;28;20050;-70
2021/10/03 15:45:23;;;;;;;6.60;2.50;;;;;;;19.42;61.62;99965.22;10149003;28;20574;-70
2021/10/03 15:50:20;;;;;;;4.55;2.53;;;;;;;19.38;61.77;99972.78;10147067;28;20054;-69
2021/10/03 15:55:34;;;;;;;5.03;2.88;;;;;;;19.29;62.31;99975.94;10145567;28;20061;-69
2021/10/03 16:00:31;;;;;;;5.82;2.75;;;;;;;19.25;63.30;99990.97;10149596;28;20050;-70
2021/10/03 16:05:28;;;;;;;6.75;3.38;;;;;;;19.18;63.29;99990.97;10150545;28;20641;-69
2021/10/03 16:10:24;;;;;;;9.15;3.35;;;;;;;19.14;63.56;99997.28;10146076;28;20043;-72
2021/10/03 16:15:23;;;;;;;7.38;3.03;;;;;;;19.08;63.83;100006.41;10145607;28;20108;-72
2021/10/03 16:20:20;;;;;;;6.55;2.78;;;;;;;19.04;64.10;100009.16;10147119;28;20182;-72
2021/10/03 16:25:17;;;;;;;5.97;3.10;;;;;;;19.01;63.70;100007.19;10139957;28;20174;-72
2021/10/03 16:30:13;;;;;;;5.63;2.78;;;;;;;19.00;64.00;100013.09;10137324;28;20085;-71
2021/10/03 16:35:10;;;;;;;4.93;2.50;;;;;;;18.97;64.17;100030.50;10141052;28;20105;-72
2021/10/03 16:40:08;;;;;;;6.30;3.08;;;;;;;18.95;63.66;100033.66;10143290;28;20093;-72
2021/10/03 16:45:05;;;;;;;5.95;3.05;;;;;;;18.94;64.37;100054.25;10140466;28;20097;-72
2021/10/03 16:50:03;;;;;;;5.88;2.70;;;;;;;18.92;64.43;100062.16;10130072;28;20140;-72
2021/10/03 16:55:00;;;;;;;5.78;2.83;;;;;;;18.90;64.61;100081.13;10142025;28;20104;-72
2021/10/03 16:59:56;;;;;;;7.05;3.00;;;;;;;18.89;64.82;100085.06;10139723;28;20125;-72
2021/10/03 17:04:54;;;;;;;6.25;3.45;;;;;;;18.86;65.67;100094.16;10134876;28;20508;-72
2021/10/03 17:09:51;;;;;;;7.10;3.20;;;;;;;18.83;66.04;100108.81;10140051;28;20405;-72
2021/10/03 17:14:47;;;;;;;4.68;2.83;;;;;;;18.77;66.68;100119.44;10139321;28;20117;-71
2021/10/03 17:19:44;;;;;;;7.80;3.47;;;;;;;18.72;66.89;100120.56;10142725;28;20483;-70
2021/10/03 17:24:43;;;;;;;4.68;3.03;;;;;;;18.67;67.07;100122.94;10143219;28;20046;-71
2021/10/03 17:29:40;;;;;;;6.25;2.90;;;;;;;18.64;66.97;100138.34;10143046;28;20046;-71
2021/10/03 17:34:37;;;;;;;4.60;2.60;;;;;;;18.63;67.08;100150.59;10134543;28;20054;-71
2021/10/03 17:39:37;;;;;;;4.80;2.90;;;;;;;18.64;66.83;100149.44;10138840;28;20176;-71
2021/10/03 17:44:37;;;;;;;7.30;3.53;;;;;;;18.65;67.25;100170.38;10125547;28;20046;-71
2021/10/03 17:49:35;;;;;;;5.70;2.80;;;;;;;18.61;67.75;100179.84;10139629;28;20461;-71
2021/10/03 17:54:32;;;;;;;5.82;2.97;;;;;;;18.59;67.92;100188.56;10140787;28;20077;-71
2021/10/03 17:59:28;;;;;;;4.80;2.72;;;;;;;18.57;67.85;100185.38;10146761;28;20050;-71
2021/10/03 18:04:27;;;;;;;5.70;2.58;;;;;;;18.56;67.86;100186.53;10144221;28;20545;-71
2021/10/03 18:09:24;;;;;;;7.50;2.90;;;;;;;18.53;68.51;100206.69;10134142;28;20065;-71
2021/10/03 18:14:22;;;;;;;5.10;2.95;;;;;;;18.48;68.80;100215.34;10148741;28;20053;-70
2021/10/03 18:19:20;;;;;;;6.32;3.15;;;;;;;18.46;69.52;100220.47;10146308;28;20180;-70
2021/10/03 18:24:22;;;;;;;6.57;3.42;;;;;;;18.43;69.78;100237.88;10151696;28;20547;-70
2021/10/03 18:29:19;;;;;;;6.28;3.15;;;;;;;18.36;71.12;100246.13;10143953;28;20077;-71
2021/10/03 18:34:17;;;;;;;7.43;3.60;;;;;;;18.30;71.21;100249.22;10141442;28;20062;-71
2021/10/03 18:39:14;;;;;;;5.80;3.45;;;;;;;18.29;71.87;100258.69;10144594;28;20038;-71
2021/10/03 18:44:10;;;;;;;7.18;3.72;;;;;;;18.24;73.18;100259.06;10146614;28;20053;-71
2021/10/03 18:49:08;;;;;;;5.63;3.55;;;;;;;18.23;73.20;100290.66;10145575;28;20035;-71
2021/10/03 18:54:04;;;;;;;5.30;3.42;;;;;;;18.17;74.11;100294.97;10144696;28;20580;-71
2021/10/03 18:59:01;;;;;;;6.80;4.45;;;;;;;18.15;74.56;100344.34;10148293;28;20045;-71
2021/10/03 19:03:58;;;;;;;3.08;1.50;;;;;;;17.77;78.19;100382.16;10146399;28;20046;-71
2021/10/03 19:08:54;;;;;;;4.47;1.83;;;;;;;17.64;80.16;100411.22;10145858;28;20579;-71
2021/10/03 19:13:51;;;;;;;2.13;1.00;;;;;;;17.40;82.40;100440.06;10148244;28;20076;-70
2021/10/03 19:18:48;;;;;;;4.95;1.45;;;;;;;17.29;83.82;100458.44;10136342;28;20066;-71
2021/10/03 19:23:45;;;;;;;19.52;1.70;;;;;;;16.90;83.36;100488.97;10144126;28;20142;-70
2021/10/03 19:28:42;;;;;;;2.78;1.20;;;;;;;16.76;83.99;100500.50;10141409;28;20066;-71
2021/10/03 19:33:39;;;;;;;3.47;1.33;;;;;;;16.48;83.81;100509.81;10142014;28;20100;-71
2021/10/03 19:38:37;;;;;;;2.80;1.08;;;;;;;16.14;82.56;100559.13;10124572;28;20452;-71
2021/10/03 19:43:33;;;;;;;1.85;0.22;;;;;;;15.66;81.77;100583.16;10145835;28;20574;-70
2021/10/03 19:48:30;;;;;;;0.30;0.10;;;;;;;15.64;82.44;100573.63;10125943;28;20677;-73
2021/10/03 19:53:26;;;;;;;0.80;0.30;;;;;;;15.40;84.01;100602.16;10141330;28;20093;-71
2021/10/03 19:58:27;;;;;;;1.10;0.45;;;;;;;15.17;85.61;100616.50;10132872;28;20497;-72
2021/10/03 20:03:23;;;;;;;0.22;0.10;;;;;;;15.17;86.41;100638.53;10139388;28;20077;-70
2021/10/03 20:08:20;;;;;;;0.52;0.17;;;;;;;15.05;87.70;100669.69;10142346;28;20556;-70
2021/10/03 20:13:16;;;;;;;1.70;0.50;;;;;;;15.15;87.23;100684.91;10102866;28;1033793;-69
2021/10/03 20:18:13;;;;;;;1.25;0.30;;;;;;;15.11;87.01;100692.28;10140011;28;20068;-72
2021/10/03 20:23:10;;;;;;;1.60;0.30;;;;;;;15.12;86.17;100702.13;10147132;28;20042;-68
2021/10/03 20:28:07;;;;;;;1.02;0.20;;;;;;;15.03;86.01;100715.22;10143492;28;20504;-69
2021/10/03 20:33:03;;;;;;;1.77;0.40;;;;;;;14.84;87.14;100738.66;10139408;28;20130;-68
2021/10/03 20:38:00;;;;;;;1.58;0.65;;;;;;;14.69;87.82;100766.88;10149676;28;20248;-68
2021/10/03 20:42:59;;;;;;;2.55;0.63;;;;;;;14.68;87.34;100766.06;10137630;28;20428;-68
2021/10/03 20:47:58;;;;;;;1.73;0.70;;;;;;;14.72;87.47;100780.75;10150280;28;20515;-70
2021/10/03 20:52:54;;;;;;;2.55;0.70;;;;;;;14.82;87.35;100803.47;10147015;28;20046;-69
2021/10/03 20:57:51;;;;;;;1.85;0.70;;;;;;;14.67;86.54;100826.97;10143793;28;20715;-69
2021/10/03 21:02:47;;;;;;;1.52;0.50;;;;;;;14.50;85.32;100826.03;10131694;28;20047;-69
2021/10/03 21:07:44;;;;;;;1.88;0.30;;;;;;;14.65;84.42;100821.03;10143272;28;20046;-69
2021/10/03 21:12:41;;;;;;;1.08;0.28;;;;;;;14.56;82.66;100839.56;10130134;28;20109;-69
2021/10/03 21:17:37;;;;;;;1.27;0.40;;;;;;;14.34;79.08;100816.78;10148619;28;20081;-69
2021/10/03 21:22:34;;;;;;;0.98;0.20;;;;;;;14.24;77.77;100842.00;10157019;28;20050;-68
2021/10/03 21:27:31;;;;;;;0.80;0.32;;;;;;;14.25;77.57;100858.16;10146194;28;20046;-70
2021/10/03 21:32:27;;;;;;;0.82;0.17;;;;;;;14.10;76.95;100887.06;10146909;28;20130;-68
2021/10/03 21:37:24;;;;;;;0.60;0.20;;;;;;;14.13;77.38;100904.03;10133157;28;20046;-68
2021/10/03 21:42:20;;;;;;;0.60;0.28;;;;;;;14.04;76.99;100902.19;10147304;28;20101;-68
2021/10/03 21:47:17;;;;;;;3.60;0.30;;;;;;;14.05;76.49;100917.53;10143199;28;20073;-68
2021/10/03 21:52:14;;;;;;;3.53;0.60;;;;;;;13.96;76.05;100927.78;10142829;28;20145;-67
2021/10/03 21:57:10;;;;;;;2.33;0.30;;;;;;;13.93;76.24;100942.22;10144798;28;20500;-68
2021/10/03 22:02:07;;;;;;;5.18;0.70;;;;;;;13.82;75.33;100938.25;10135325;28;20517;-70
2021/10/03 22:07:03;;;;;;;1.52;0.40;;;;;;;13.77;76.12;100938.47;10141317;28;20538;-69
2021/10/03 22:12:00;;;;;;;2.53;0.40;;;;;;;13.74;75.81;100952.84;10139198;28;20409;-68
2021/10/03 22:16:56;;;;;;;1.77;0.40;;;;;;;13.73;76.37;100956.75;10139988;28;20046;-68
2021/10/03 22:21:53;;;;;;;3.72;0.60;;;;;;;13.64;76.70;100959.53;10161105;28;20053;-69
2021/10/03 22:26:49;;;;;;;1.67;0.50;;;;;;;13.55;77.24;100967.81;10148441;28;20046;-69
2021/10/03 22:31:46;;;;;;;2.20;0.68;;;;;;;13.58;76.63;100961.69;10125807;28;20077;-69
2021/10/03 22:36:42;;;;;;;3.78;0.80;;;;;;;13.54;75.66;100977.22;10129937;28;20511;-69
2021/10/03 22:41:39;;;;;;;1.15;0.50;;;;;;;13.48;75.27;100973.03;10152889;28;20072;-70
2021/10/03 22:46:35;;;;;;;4.85;0.73;;;;;;;13.52;74.69;100979.50;10150173;28;20076;-70
2021/10/03 22:51:32;;;;;;;3.10;0.70;;;;;;;13.44;74.77;100983.91;10139027;28;20413;-70
2021/10/03 22:56:28;;;;;;;2.55;0.77;;;;;;;13.55;74.82;101000.78;10154710;28;20093;-70
2021/10/03 23:01:25;;;;;;;2.38;0.80;;;;;;;13.61;74.92;101009.66;10145383;28;20074;-69
2021/10/03 23:06:21;;;;;;;3.22;0.70;;;;;;;13.56;74.42;101007.91;10144569;28;20046;-69